Time;durP1;ratioP1;P1;durP2;ratioP2;P2;SDS_P1;SDS_P2;PMS_P1;PMS_P2;Temp;Humidity;BMP_temperature;BMP_pressure;BME280_temperature;BME280_humidity;BME280_pressure;Samples;Min_cycle;Max_cycle;Signal;HPM_P1;HPM_P2
2021/08/13 00:01:06;;;;;;;46.67;43.37;;;;;;;16.67;100.00;102020.89;1971655;73;32970;-76
2021/08/13 00:06:51;;;;;;;48.30;44.77;;;;;;;16.63;100.00;102017.57;2016247;71;30872;-76
2021/08/13 00:12:15;;;;;;;47.10;43.60;;;;;;;16.51;100.00;102014.31;1971726;73;31044;-76
2021/08/13 00:17:46;;;;;;;46.50;43.37;;;;;;;16.54;100.00;102005.30;1971922;73;33489;-76
2021/08/13 00:23:13;;;;;;;46.40;43.23;;;;;;;16.28;100.00;102011.16;1977448;72;33416;-76
2021/08/13 00:28:37;;;;;;;46.67;43.27;;;;;;;16.29;100.00;101997.98;1971679;73;33018;-75
2021/08/13 00:34:02;;;;;;;45.13;41.83;;;;;;;16.34;100.00;101997.34;1971757;73;30973;-76
2021/08/13 00:39:27;;;;;;;49.37;45.67;;;;;;;16.24;100.00;101993.83;1971933;73;33457;-70
2021/08/13 00:44:52;;;;;;;48.97;45.30;;;;;;;16.12;100.00;102013.85;1971706;73;32933;-76
2021/08/13 00:50:19;;;;;;;48.07;44.67;;;;;;;16.14;100.00;102007.37;1971876;73;31516;-76
2021/08/13 00:55:44;;;;;;;49.10;45.80;;;;;;;16.12;100.00;102010.20;1971902;73;33366;-68
2021/08/13 01:01:11;;;;;;;49.27;45.83;;;;;;;15.98;100.00;102018.45;1971966;73;33389;-76
2021/08/13 01:06:36;;;;;;;47.93;44.43;;;;;;;15.91;100.00;102021.60;1971995;73;32930;-74
2021/08/13 01:12:05;;;;;;;48.40;44.93;;;;;;;15.87;100.00;102028.89;1972000;73;33460;-70
2021/08/13 01:17:37;;;;;;;47.00;43.80;;;;;;;15.82;100.00;102018.31;1971921;73;33451;-76
2021/08/13 01:23:08;;;;;;;45.17;41.63;;;;;;;15.85;100.00;102025.56;1937069;74;33601;-68
2021/08/13 01:28:40;;;;;;;47.17;44.00;;;;;;;15.65;100.00;102039.72;1971971;73;33516;-70
2021/08/13 01:34:11;;;;;;;47.63;44.20;;;;;;;15.61;100.00;102035.83;1971687;73;33047;-70
2021/08/13 01:39:37;;;;;;;48.10;44.70;;;;;;;15.55;100.00;102020.73;1971957;73;33400;-70
2021/08/13 01:45:06;;;;;;;46.90;43.40;;;;;;;15.55;100.00;102027.17;1971869;73;31453;-70
2021/08/13 01:50:32;;;;;;;47.33;43.83;;;;;;;15.35;100.00;102027.27;1971886;73;33489;-70
2021/08/13 01:56:00;;;;;;;47.40;44.00;;;;;;;15.44;100.00;102017.98;1971923;73;32883;-71
2021/08/13 02:01:46;;;;;;;45.63;42.33;;;;;;;15.43;100.00;102029.47;2016222;71;32876;-75
2021/08/13 02:07:14;;;;;;;45.33;41.93;;;;;;;15.35;100.00;102026.72;1971875;73;33491;-70
2021/08/13 02:12:40;;;;;;;45.10;41.70;;;;;;;15.32;100.00;102026.43;1971907;73;33516;-70
2021/08/13 02:18:11;;;;;;;47.13;43.50;;;;;;;15.31;100.00;102019.18;1971788;73;33494;-70
2021/08/13 02:23:37;;;;;;;47.10;43.57;;;;;;;15.26;100.00;102010.80;1971879;73;33477;-75
2021/08/13 02:29:02;;;;;;;43.97;40.77;;;;;;;15.29;100.00;102023.66;1971824;73;33399;-74
2021/08/13 02:34:26;;;;;;;46.83;43.23;;;;;;;15.27;100.00;102024.53;1971706;73;32996;-75
2021/08/13 02:39:56;;;;;;;43.37;39.97;;;;;;;15.26;100.00;102020.05;1971653;73;32952;-76
2021/08/13 02:45:45;;;;;;;44.40;41.00;;;;;;;15.22;100.00;102025.11;2016150;71;32895;-70
2021/08/13 02:51:14;;;;;;;46.20;42.90;;;;;;;15.19;100.00;102026.50;1971826;73;32904;-76
2021/08/13 02:56:41;;;;;;;44.27;41.00;;;;;;;15.13;100.00;102024.87;1971638;72;33088;-70
2021/08/13 03:02:27;;;;;;;49.73;46.20;;;;;;;15.20;100.00;102034.34;2016111;71;32891;-69
2021/08/13 03:07:55;;;;;;;47.23;43.93;;;;;;;15.22;100.00;102025.95;1971927;73;33350;-76
2021/08/13 03:13:22;;;;;;;49.50;46.00;;;;;;;15.28;100.00;102037.37;1971926;73;33441;-70
2021/08/13 03:18:49;;;;;;;49.03;45.67;;;;;;;15.32;100.00;102037.07;1971722;73;32907;-69
2021/08/13 03:24:15;;;;;;;48.20;44.67;;;;;;;15.29;100.00;102041.86;1971716;72;33082;-70
2021/08/13 03:29:39;;;;;;;48.60;45.13;;;;;;;15.06;100.00;102030.51;1971742;73;32959;-76
2021/08/13 03:35:04;;;;;;;46.63;43.13;;;;;;;15.07;100.00;102029.36;1971883;73;33459;-70
2021/08/13 03:40:29;;;;;;;47.13;43.70;;;;;;;15.19;100.00;102039.69;1971862;73;32907;-75
2021/08/13 03:45:53;;;;;;;47.87;44.37;;;;;;;15.09;100.00;102041.12;1971679;73;33011;-70
2021/08/13 03:51:17;;;;;;;47.87;44.47;;;;;;;15.04;100.00;102036.38;1971824;72;32951;-70
2021/08/13 03:56:42;;;;;;;46.27;42.97;;;;;;;15.16;100.00;102045.27;1971801;73;33469;-70
2021/08/13 04:02:07;;;;;;;46.10;42.60;;;;;;;15.04;100.00;102033.58;1880044;73;39669;-69
2021/08/13 04:07:32;;;;;;;47.83;44.43;;;;;;;14.96;100.00;102032.78;1971678;73;32906;-70
2021/08/13 04:12:56;;;;;;;48.40;44.70;;;;;;;15.14;100.00;102032.15;1971774;73;32943;-76
2021/08/13 04:18:21;;;;;;;46.63;43.07;;;;;;;15.23;100.00;102037.39;1971725;73;33005;-76
2021/08/13 04:23:46;;;;;;;47.17;43.80;;;;;;;15.25;100.00;102034.31;1971911;73;33370;-70
2021/08/13 04:29:10;;;;;;;47.10;43.43;;;;;;;15.31;100.00;102028.98;1971791;73;32975;-69
2021/08/13 04:34:35;;;;;;;52.90;48.77;;;;;;;15.31;100.00;102031.22;1971800;73;33007;-76
2021/08/13 04:40:00;;;;;;;48.63;44.73;;;;;;;15.30;100.00;102031.50;1971671;73;32905;-76
2021/08/13 04:45:25;;;;;;;49.23;45.60;;;;;;;15.38;100.00;102030.89;1971647;73;33028;-76
2021/08/13 04:50:49;;;;;;;55.38;51.20;;;;;;;15.46;100.00;102038.12;1955518;73;28513;-69
2021/08/13 04:56:13;;;;;;;51.67;47.57;;;;;;;15.34;100.00;102045.20;1971715;73;32996;-70
2021/08/13 05:01:38;;;;;;;52.60;48.63;;;;;;;15.35;100.00;102044.08;1971786;73;32971;-76
2021/08/13 05:07:02;;;;;;;48.53;44.60;;;;;;;15.41;100.00;102041.50;1971897;73;33502;-76
2021/08/13 05:12:27;;;;;;;49.40;45.77;;;;;;;15.40;100.00;102021.06;1971759;73;32913;-70
2021/08/13 05:17:54;;;;;;;48.97;45.33;;;;;;;15.41;100.00;102035.34;1971967;73;32888;-70
2021/08/13 05:23:22;;;;;;;51.60;47.37;;;;;;;15.49;100.00;102062.73;1971912;73;32995;-76
2021/08/13 05:28:47;;;;;;;49.30;45.60;;;;;;;15.50;100.00;102053.80;1971905;73;33487;-76
2021/08/13 05:34:11;;;;;;;51.43;47.73;;;;;;;15.60;100.00;102055.72;1971830;73;32985;-76
2021/08/13 05:39:35;;;;;;;48.70;44.73;;;;;;;15.59;100.00;102066.08;1971858;72;33453;-70
2021/08/13 05:45:00;;;;;;;50.43;46.63;;;;;;;15.60;100.00;102063.56;1971761;73;33051;-75
2021/08/13 05:50:25;;;;;;;51.23;47.53;;;;;;;15.62;100.00;102066.89;1971868;73;33003;-71
2021/08/13 05:55:49;;;;;;;54.20;50.13;;;;;;;15.61;100.00;102079.25;1971905;73;32993;-76
2021/08/13 06:01:13;;;;;;;52.43;48.73;;;;;;;15.54;100.00;102080.11;1971801;73;33065;-72
2021/08/13 06:06:41;;;;;;;52.73;48.57;;;;;;;15.57;100.00;102092.16;1971767;73;33008;-72
2021/08/13 06:12:05;;;;;;;50.93;46.93;;;;;;;15.61;100.00;102100.25;1971881;73;33003;-72
2021/08/13 06:17:30;;;;;;;52.97;48.63;;;;;;;15.68;100.00;102110.56;1971677;73;33071;-71
2021/08/13 06:22:55;;;;;;;51.77;47.90;;;;;;;15.73;100.00;102116.15;1971747;73;32891;-71
2021/08/13 06:28:19;;;;;;;51.93;47.60;;;;;;;15.93;100.00;102125.82;1971662;73;32980;-72
2021/08/13 06:33:44;;;;;;;49.07;44.97;;;;;;;16.05;100.00;102115.64;1971835;73;33486;-72
2021/08/13 06:39:08;;;;;;;50.73;46.47;;;;;;;16.08;100.00;102118.45;1971775;73;33158;-73
2021/08/13 06:44:33;;;;;;;50.57;46.47;;;;;;;16.20;100.00;102115.55;1971905;73;30989;-71
2021/08/13 06:49:58;;;;;;;50.37;46.20;;;;;;;16.35;100.00;102114.00;1971823;73;32904;-71
2021/08/13 06:55:23;;;;;;;50.43;46.40;;;;;;;16.45;100.00;102118.70;1971810;73;33368;-72
2021/08/13 07:00:48;;;;;;;58.00;53.07;;;;;;;16.61;100.00;102133.44;1971792;73;33540;-72
2021/08/13 07:06:12;;;;;;;58.80;54.07;;;;;;;16.64;100.00;102128.11;1971902;73;30968;-71
2021/08/13 07:11:36;;;;;;;56.10;51.90;;;;;;;16.73;100.00;102115.08;1971856;72;33507;-72
2021/08/13 07:17:01;;;;;;;56.60;52.50;;;;;;;16.79;100.00;102135.52;1971942;73;31436;-72
2021/08/13 07:22:25;;;;;;;57.40;52.73;;;;;;;16.84;100.00;102125.66;1961753;71;33005;-72
2021/08/13 07:27:51;;;;;;;59.30;54.60;;;;;;;16.96;100.00;102134.50;1971758;73;31046;-72
2021/08/13 07:33:15;;;;;;;58.37;53.93;;;;;;;17.05;100.00;102152.37;1971925;73;30941;-73
2021/08/13 07:38:43;;;;;;;56.73;52.23;;;;;;;17.17;100.00;102155.61;1971984;73;31485;-72
2021/08/13 07:44:08;;;;;;;56.00;51.43;;;;;;;17.25;100.00;102148.48;1971753;73;31032;-73
2021/08/13 07:49:32;;;;;;;53.10;48.73;;;;;;;17.38;100.00;102137.10;1971873;73;33515;-73
2021/08/13 07:54:57;;;;;;;51.23;47.13;;;;;;;17.51;100.00;102142.00;1971951;73;33432;-73
2021/08/13 08:00:21;;;;;;;52.77;48.70;;;;;;;17.67;100.00;102150.55;1971992;73;33542;-73
2021/08/13 08:05:46;;;;;;;53.87;49.27;;;;;;;17.78;100.00;102149.27;1971697;73;31045;-73
2021/08/13 08:11:10;;;;;;;53.03;48.93;;;;;;;17.99;100.00;102147.83;1971927;73;31013;-74
2021/08/13 08:16:35;;;;;;;52.43;48.27;;;;;;;18.07;100.00;102165.98;1971861;73;31487;-73
2021/08/13 08:22:00;;;;;;;53.37;49.33;;;;;;;18.15;100.00;102168.11;1963724;71;31058;-73
2021/08/13 08:27:30;;;;;;;45.60;41.30;;;;;;;18.27;100.00;102160.64;1971896;73;33035;-73
2021/08/13 08:32:55;;;;;;;48.77;44.83;;;;;;;18.32;100.00;102174.60;1971848;73;31487;-72
2021/08/13 08:38:20;;;;;;;50.60;46.53;;;;;;;18.38;100.00;102177.05;1971630;73;30991;-72
2021/08/13 08:43:44;;;;;;;51.93;47.53;;;;;;;18.44;100.00;102172.19;1971678;73;30958;-72
2021/08/13 08:49:10;;;;;;;44.83;40.97;;;;;;;18.76;100.00;102169.97;1971824;72;31537;-72
2021/08/13 08:54:38;;;;;;;48.70;45.07;;;;;;;18.75;100.00;102170.53;1971929;73;31456;-73
2021/08/13 09:00:03;;;;;;;49.67;46.07;;;;;;;18.84;100.00;102170.66;1971728;73;30971;-73
2021/08/13 09:05:28;;;;;;;47.57;43.80;;;;;;;18.99;100.00;102165.61;1971770;73;30979;-73
2021/08/13 09:10:53;;;;;;;44.33;41.13;;;;;;;19.06;100.00;102173.64;1971796;73;33428;-73
2021/08/13 09:16:19;;;;;;;43.50;40.10;;;;;;;19.12;100.00;102175.23;1971754;73;31002;-72
2021/08/13 09:21:56;;;;;;;42.03;38.93;;;;;;;19.29;100.00;102167.58;1964555;71;33385;-73
2021/08/13 09:27:25;;;;;;;43.13;39.53;;;;;;;19.28;100.00;102192.09;1971915;73;33415;-73
2021/08/13 09:33:09;;;;;;;43.47;39.57;;;;;;;19.38;100.00;102188.25;1972020;73;31081;-72
2021/08/13 09:38:36;;;;;;;42.00;38.67;;;;;;;19.31;100.00;102191.46;1971877;73;31452;-72
2021/08/13 09:44:07;;;;;;;40.53;37.30;;;;;;;19.28;100.00;102191.25;1971750;73;30970;-72
2021/08/13 09:49:34;;;;;;;42.67;39.13;;;;;;;19.34;100.00;102180.16;1971715;73;30962;-73
2021/08/13 09:55:11;;;;;;;40.70;37.63;;;;;;;19.53;100.00;102191.61;1971942;73;31027;-72
2021/08/13 10:00:45;;;;;;;41.37;38.27;;;;;;;19.58;100.00;102193.50;1971840;73;31056;-72
2021/08/13 10:06:11;;;;;;;44.23;40.77;;;;;;;19.47;100.00;102203.28;1971996;73;31432;-72
2021/08/13 10:11:37;;;;;;;40.10;37.30;;;;;;;19.68;100.00;102194.67;1971695;73;31032;-72
2021/08/13 10:17:11;;;;;;;41.90;38.70;;;;;;;19.82;100.00;102198.33;1971730;73;30972;-71
2021/08/13 10:22:37;;;;;;;41.70;38.43;;;;;;;19.92;100.00;102198.12;1946085;73;31076;-76
2021/08/13 10:28:04;;;;;;;40.80;37.83;;;;;;;20.09;100.00;102198.87;1971963;73;31049;-77
2021/08/13 10:33:28;;;;;;;40.50;37.53;;;;;;;20.29;100.00;102204.06;1971705;73;31048;-73
2021/08/13 10:38:54;;;;;;;42.03;38.73;;;;;;;20.07;100.00;102200.34;1971946;73;31481;-72
2021/08/13 10:44:24;;;;;;;40.73;37.93;;;;;;;20.30;100.00;102202.91;1971878;73;31529;-74
2021/08/13 10:49:52;;;;;;;40.70;37.80;;;;;;;20.11;100.00;102181.63;1971795;73;31479;-73
2021/08/13 10:55:48;;;;;;;39.50;36.73;;;;;;;20.13;100.00;102182.13;1971742;73;31093;-73
2021/08/13 11:01:28;;;;;;;40.67;37.67;;;;;;;20.08;100.00;102183.66;1971684;73;31003;-74
2021/08/13 11:07:09;;;;;;;40.67;37.53;;;;;;;20.52;100.00;102195.63;1971867;73;31488;-73
2021/08/13 11:12:35;;;;;;;38.37;35.63;;;;;;;20.42;100.00;102184.00;1971720;73;30968;-72
2021/08/13 11:18:00;;;;;;;39.60;36.43;;;;;;;20.43;100.00;102188.50;1971722;73;31025;-71
2021/08/13 11:23:29;;;;;;;39.83;36.93;;;;;;;20.48;100.00;102183.30;1971844;73;31117;-75
2021/08/13 11:28:58;;;;;;;38.97;36.27;;;;;;;20.84;100.00;102177.00;1971879;73;31563;-73
2021/08/13 11:34:46;;;;;;;38.60;36.10;;;;;;;21.01;100.00;102177.71;1971952;73;30984;-75
2021/08/13 11:40:45;;;;;;;39.37;36.70;;;;;;;20.88;100.00;102174.62;1971960;73;31479;-75
2021/08/13 11:46:11;;;;;;;38.85;36.15;;;;;;;21.03;100.00;102171.98;1971746;73;30932;-75
2021/08/13 11:51:37;;;;;;;36.33;33.75;;;;;;;20.93;100.00;102170.83;1971902;73;31475;-75
2021/08/13 11:57:16;;;;;;;36.28;33.95;;;;;;;21.08;100.00;102160.54;1971804;73;31049;-75
2021/08/13 12:02:41;;;;;;;36.97;34.27;;;;;;;21.13;100.00;102173.73;1971713;73;31074;-75
2021/08/13 12:08:12;;;;;;;47.17;43.25;;;;;;;21.48;100.00;102166.24;1971914;73;31478;-75
2021/08/13 12:13:40;;;;;;;44.07;40.37;;;;;;;21.57;100.00;102143.04;1971934;73;30982;-75
2021/08/13 12:19:11;;;;;;;34.40;31.70;;;;;;;21.68;100.00;102148.09;1971827;73;31107;-75
2021/08/13 12:24:50;;;;;;;31.33;29.17;;;;;;;21.61;100.00;102161.86;1971693;73;30955;-76
2021/08/13 12:30:21;;;;;;;38.90;35.63;;;;;;;21.68;100.00;102167.89;1971755;73;31099;-72
2021/08/13 12:35:48;;;;;;;32.48;30.27;;;;;;;21.70;100.00;102171.78;1971934;73;31478;-75
2021/08/13 12:41:15;;;;;;;31.33;29.23;;;;;;;21.72;100.00;102156.73;1971950;73;31453;-73
2021/08/13 12:46:39;;;;;;;30.20;28.10;;;;;;;21.76;100.00;102161.98;1971720;73;31112;-75
2021/08/13 12:52:15;;;;;;;29.77;27.58;;;;;;;21.95;100.00;102154.05;1971687;73;31154;-75
2021/08/13 12:57:41;;;;;;;35.95;33.33;;;;;;;22.10;100.00;102156.42;1971683;73;31046;-75
2021/08/13 13:03:14;;;;;;;30.35;28.35;;;;;;;22.33;100.00;102138.70;1971819;72;31001;-75
2021/08/13 13:08:57;;;;;;;44.95;40.92;;;;;;;22.32;100.00;102140.44;1971900;73;31474;-74
2021/08/13 13:14:23;;;;;;;665.58;555.83;;;;;;;22.21;100.00;102132.84;1971927;73;31035;-74
2021/08/13 13:20:13;;;;;;;29.15;27.27;;;;;;;22.83;100.00;102131.91;1971970;73;31433;-72
2021/08/13 13:25:43;;;;;;;26.65;25.05;;;;;;;23.04;100.00;102139.09;1971892;73;31007;-73
2021/08/13 13:31:14;;;;;;;26.20;24.55;;;;;;;22.73;100.00;102128.00;1971725;73;30993;-74
2021/08/13 13:36:44;;;;;;;26.55;24.87;;;;;;;22.56;100.00;102145.83;1971965;73;31541;-72
2021/08/13 13:42:10;;;;;;;27.65;25.97;;;;;;;22.49;100.00;102122.02;1971816;73;30941;-72
2021/08/13 13:47:35;;;;;;;26.73;24.92;;;;;;;22.50;100.00;102111.78;1971720;73;31038;-72
2021/08/13 13:53:01;;;;;;;25.25;23.30;;;;;;;22.44;100.00;102115.11;1971738;72;31047;-73
2021/08/13 13:58:25;;;;;;;24.43;22.93;;;;;;;22.55;100.00;102113.58;1971904;73;30964;-72
2021/08/13 14:03:50;;;;;;;31.82;29.20;;;;;;;22.60;100.00;102113.41;1971732;73;31034;-73
2021/08/13 14:09:15;;;;;;;27.00;25.23;;;;;;;22.69;100.00;102119.93;1971860;73;31442;-73
2021/08/13 14:14:40;;;;;;;26.05;24.30;;;;;;;22.82;100.00;102106.14;1971901;73;31115;-74
2021/08/13 14:17:47;;;;;;;40.23;36.75;;;;;;;22.79;100.00;102122.41;1934537;74;24136;-74
2021/08/13 14:23:13;;;;;;;23.85;22.25;;;;;;;22.91;100.00;102127.38;1971680;73;31063;-72
2021/08/13 14:28:37;;;;;;;36.95;34.00;;;;;;;22.81;100.00;102114.97;1971732;73;31004;-72
2021/08/13 14:34:03;;;;;;;32.55;29.87;;;;;;;22.81;100.00;102124.31;1971927;73;30971;-71
2021/08/13 14:39:28;;;;;;;27.22;25.37;;;;;;;22.67;100.00;102125.08;1971888;73;31063;-72
2021/08/13 14:44:53;;;;;;;25.23;23.70;;;;;;;22.65;100.00;102118.33;1972114;73;31513;-72
2021/08/13 14:50:18;;;;;;;24.07;22.48;;;;;;;22.60;100.00;102118.50;1971720;73;30973;-73
2021/08/13 14:55:42;;;;;;;30.32;28.12;;;;;;;22.69;100.00;102112.84;1971992;73;31049;-72
2021/08/13 15:01:07;;;;;;;26.45;24.35;;;;;;;22.48;100.00;102110.44;1971793;73;30955;-74
2021/08/13 15:06:52;;;;;;;24.87;23.32;;;;;;;22.46;100.00;102111.37;2016077;71;31459;-72
2021/08/13 15:12:17;;;;;;;26.50;24.40;;;;;;;22.44;100.00;102119.36;1972208;73;31474;-73
2021/08/13 15:17:42;;;;;;;28.00;25.52;;;;;;;22.45;100.00;102121.86;1971678;72;30947;-72
2021/08/13 15:23:07;;;;;;;29.95;27.58;;;;;;;22.50;100.00;102101.88;1936942;74;31210;-73
2021/08/13 15:28:51;;;;;;;26.75;24.75;;;;;;;22.71;100.00;102102.61;2015990;71;30880;-74
2021/08/13 15:34:16;;;;;;;35.80;31.87;;;;;;;22.68;100.00;102094.14;1971781;73;30970;-73
2021/08/13 15:39:44;;;;;;;25.32;23.65;;;;;;;22.89;100.00;102092.89;1971813;73;30979;-75
2021/08/13 15:45:09;;;;;;;24.07;22.48;;;;;;;23.06;100.00;102096.47;1971896;73;31061;-72
2021/08/13 15:50:34;;;;;;;23.50;22.00;;;;;;;23.10;100.00;102090.97;1971708;73;31122;-73
2021/08/13 15:56:00;;;;;;;23.70;21.90;;;;;;;22.96;100.00;102104.52;1971942;73;31573;-72
2021/08/13 16:01:25;;;;;;;25.57;23.80;;;;;;;22.90;100.00;102094.53;1971775;72;30975;-76
2021/08/13 16:06:49;;;;;;;24.92;23.22;;;;;;;22.73;100.00;102077.59;1971870;73;31004;-71
2021/08/13 16:12:13;;;;;;;26.00;24.05;;;;;;;22.84;100.00;102073.23;1971888;73;31107;-77
2021/08/13 16:17:39;;;;;;;25.02;23.35;;;;;;;22.81;100.00;102080.39;1971929;73;31523;-69
2021/08/13 16:23:06;;;;;;;25.60;23.67;;;;;;;22.77;100.00;102079.41;1937164;74;31531;-75
2021/08/13 16:28:29;;;;;;;26.00;24.15;;;;;;;22.81;100.00;102078.14;1971800;73;31050;-74
2021/08/13 16:33:53;;;;;;;25.90;23.98;;;;;;;22.71;100.00;102053.86;1971747;73;31079;-75
2021/08/13 16:39:19;;;;;;;25.88;23.98;;;;;;;22.80;100.00;102067.42;1971735;73;30970;-74
2021/08/13 16:44:44;;;;;;;26.60;24.80;;;;;;;22.78;100.00;102066.08;1971787;73;30990;-73
2021/08/13 16:50:11;;;;;;;26.60;24.50;;;;;;;22.73;100.00;102064.84;1971941;73;31436;-73
2021/08/13 16:55:37;;;;;;;25.97;24.12;;;;;;;22.71;100.00;102061.53;1971902;72;31487;-74
2021/08/13 17:01:02;;;;;;;25.50;23.95;;;;;;;22.72;100.00;102059.75;1971989;73;31444;-71
2021/08/13 17:06:27;;;;;;;25.50;23.90;;;;;;;22.75;100.00;102054.02;1971770;73;31037;-75
2021/08/13 17:11:52;;;;;;;25.80;23.83;;;;;;;22.87;100.00;102057.80;1971778;73;31138;-74
2021/08/13 17:17:17;;;;;;;25.05;23.62;;;;;;;22.82;100.00;102062.81;1971958;73;31551;-74
2021/08/13 17:22:42;;;;;;;24.55;23.00;;;;;;;22.84;100.00;102066.98;1971824;73;31469;-75
2021/08/13 17:28:08;;;;;;;24.95;23.47;;;;;;;22.78;100.00;102066.08;1971896;73;31526;-74
2021/08/13 17:33:33;;;;;;;26.12;23.98;;;;;;;22.78;100.00;102060.41;1971772;73;31080;-72
2021/08/13 17:38:58;;;;;;;25.85;24.05;;;;;;;22.78;100.00;102062.66;1971757;73;30963;-74
2021/08/13 17:44:26;;;;;;;25.52;23.92;;;;;;;22.65;100.00;102065.92;1972150;73;31505;-72
2021/08/13 17:49:51;;;;;;;26.45;24.65;;;;;;;22.51;100.00;102070.11;1971962;73;31489;-75
2021/08/13 17:55:16;;;;;;;27.07;25.20;;;;;;;22.37;100.00;102064.66;1971803;73;31026;-74
2021/08/13 18:00:41;;;;;;;27.45;25.62;;;;;;;22.35;100.00;102060.48;1971861;73;31445;-74
2021/08/13 18:06:07;;;;;;;27.58;25.70;;;;;;;22.38;100.00;102062.06;1971806;73;31029;-70
2021/08/13 18:11:32;;;;;;;27.40;25.57;;;;;;;22.30;100.00;102069.15;1971679;73;31062;-73
2021/08/13 18:16:57;;;;;;;31.20;29.05;;;;;;;22.07;100.00;102067.95;1971861;73;31717;-73
2021/08/13 18:22:22;;;;;;;36.25;33.13;;;;;;;22.13;100.00;102070.84;1949017;73;31409;-73
2021/08/13 18:27:47;;;;;;;39.20;36.37;;;;;;;22.07;100.00;102069.94;1971857;73;31108;-72
2021/08/13 18:33:14;;;;;;;41.10;37.50;;;;;;;21.95;100.00;102078.27;1971898;73;31120;-73
2021/08/13 18:38:39;;;;;;;42.60;38.80;;;;;;;21.91;100.00;102083.70;1971815;73;30961;-72
2021/08/13 18:44:07;;;;;;;42.25;38.70;;;;;;;21.80;100.00;102083.78;1971960;73;31433;-72
2021/08/13 18:49:32;;;;;;;43.75;40.30;;;;;;;21.67;100.00;102086.18;1971939;73;31512;-72
2021/08/13 18:54:57;;;;;;;45.38;41.75;;;;;;;21.34;100.00;102088.03;1971866;73;30970;-72
2021/08/13 19:00:22;;;;;;;45.77;42.37;;;;;;;21.25;100.00;102088.59;1971727;73;30974;-72
2021/08/13 19:05:46;;;;;;;49.97;46.13;;;;;;;21.23;100.00;102091.47;1972283;73;31500;-73
2021/08/13 19:11:13;;;;;;;52.03;47.83;;;;;;;21.13;100.00;102096.02;1971742;73;31011;-73
2021/08/13 19:16:38;;;;;;;50.57;46.77;;;;;;;21.14;100.00;102099.91;1971813;73;31022;-73
2021/08/13 19:22:03;;;;;;;50.55;46.80;;;;;;;21.07;100.00;102102.93;1953037;73;31004;-72
2021/08/13 19:27:28;;;;;;;50.23;46.23;;;;;;;21.01;100.00;102112.13;1971783;73;30963;-74
2021/08/13 19:32:53;;;;;;;51.28;47.33;;;;;;;21.01;100.00;102125.44;1971981;73;31514;-73
2021/08/13 19:38:37;;;;;;;51.83;47.43;;;;;;;20.95;100.00;102136.61;1989943;71;30889;-70
2021/08/13 19:44:03;;;;;;;52.40;48.60;;;;;;;20.83;100.00;102122.52;1971873;72;31452;-71
2021/08/13 19:49:29;;;;;;;49.73;46.07;;;;;;;20.84;100.00;102126.16;1971974;73;31005;-70
2021/08/13 19:54:54;;;;;;;50.70;46.67;;;;;;;20.81;100.00;102149.41;1971873;73;31555;-74
2021/08/13 20:00:20;;;;;;;52.13;47.80;;;;;;;20.77;100.00;102161.93;1971849;73;31036;-71
2021/08/13 20:05:45;;;;;;;50.33;46.20;;;;;;;20.67;100.00;102164.17;1972052;73;31035;-70
2021/08/13 20:11:17;;;;;;;48.97;45.07;;;;;;;20.62;100.00;102151.05;1972022;72;31460;-72
2021/08/13 20:16:42;;;;;;;51.68;47.25;;;;;;;20.50;100.00;102154.16;1971968;73;33509;-73
2021/08/13 20:22:08;;;;;;;51.83;47.53;;;;;;;20.38;100.00;102166.88;1952124;73;31408;-71
2021/08/13 20:27:33;;;;;;;51.53;47.10;;;;;;;20.32;100.00;102168.74;1971779;73;30960;-72
2021/08/13 20:33:00;;;;;;;52.37;47.83;;;;;;;20.19;100.00;102171.00;1972043;73;31443;-71
2021/08/13 20:38:25;;;;;;;51.33;47.10;;;;;;;20.09;100.00;102173.47;1971973;73;31419;-74
2021/08/13 20:43:51;;;;;;;52.07;47.20;;;;;;;20.13;100.00;102173.09;1971772;73;31058;-74
2021/08/13 20:49:16;;;;;;;50.53;46.17;;;;;;;19.84;100.00;102176.30;1971923;73;31554;-74
2021/08/13 20:54:43;;;;;;;49.33;45.23;;;;;;;19.86;100.00;102187.24;1971709;73;30960;-72
2021/08/13 21:00:27;;;;;;;49.90;45.80;;;;;;;19.71;100.00;102181.95;2016234;71;30874;-73
2021/08/13 21:05:52;;;;;;;50.73;46.63;;;;;;;19.60;100.00;102185.55;1971953;73;31523;-78
2021/08/13 21:11:16;;;;;;;49.53;45.40;;;;;;;19.73;100.00;102188.09;1971701;73;31032;-70
2021/08/13 21:16:41;;;;;;;51.07;46.77;;;;;;;19.56;100.00;102187.32;1971806;73;31044;-73
2021/08/13 21:22:06;;;;;;;52.70;47.73;;;;;;;19.65;100.00;102188.83;1971858;73;31508;-72
2021/08/13 21:27:37;;;;;;;51.57;47.10;;;;;;;19.50;100.00;102195.64;1971959;72;31580;-72
2021/08/13 21:33:04;;;;;;;51.77;47.27;;;;;;;19.44;100.00;102188.42;1971897;73;31485;-72
2021/08/13 21:38:28;;;;;;;50.33;46.23;;;;;;;19.30;100.00;102189.78;1971828;73;31046;-71
2021/08/13 21:43:53;;;;;;;50.53;46.53;;;;;;;19.32;100.00;102185.26;1971943;73;31418;-71
2021/08/13 21:49:17;;;;;;;52.60;47.93;;;;;;;19.15;100.00;102197.13;1971919;73;31560;-76
2021/08/13 21:54:42;;;;;;;52.37;47.97;;;;;;;19.07;100.00;102187.99;1971694;73;30966;-72
2021/08/13 22:00:09;;;;;;;51.93;47.70;;;;;;;19.05;100.00;102191.11;1971691;73;33041;-76
2021/08/13 22:05:34;;;;;;;148.67;121.63;;;;;;;18.95;100.00;102195.53;1971902;73;33434;-72
2021/08/13 22:10:58;;;;;;;62.57;56.77;;;;;;;18.95;100.00;102193.29;1971719;73;31104;-75
2021/08/13 22:16:23;;;;;;;53.90;48.63;;;;;;;18.92;100.00;102194.73;1971795;73;30952;-72
2021/08/13 22:21:47;;;;;;;53.30;48.40;;;;;;;18.87;100.00;102194.81;1955769;73;30963;-72
2021/08/13 22:27:13;;;;;;;53.13;48.73;;;;;;;18.76;100.00;102196.72;1971774;73;31028;-76
2021/08/13 22:32:38;;;;;;;50.57;46.00;;;;;;;18.64;100.00;102195.23;1971784;73;31061;-72
2021/08/13 22:38:04;;;;;;;51.10;47.00;;;;;;;18.75;100.00;102205.72;1972064;73;31522;-72
2021/08/13 22:43:29;;;;;;;50.30;45.57;;;;;;;18.57;100.00;102203.20;1972133;73;31031;-72
2021/08/13 22:48:53;;;;;;;51.77;47.47;;;;;;;18.61;100.00;102193.60;1971830;72;31015;-72
2021/08/13 22:54:18;;;;;;;51.20;46.57;;;;;;;18.50;100.00;102199.92;1971809;73;31059;-72
2021/08/13 22:59:42;;;;;;;49.70;45.67;;;;;;;18.46;100.00;102196.05;1971764;73;30973;-75
2021/08/13 23:05:08;;;;;;;51.27;46.73;;;;;;;18.50;100.00;102203.30;1971811;73;30957;-75
2021/08/13 23:10:33;;;;;;;49.70;45.27;;;;;;;18.51;100.00;102199.36;1971936;73;30957;-73
2021/08/13 23:16:03;;;;;;;51.13;46.97;;;;;;;18.43;100.00;102195.83;1971691;73;31067;-72
2021/08/13 23:21:27;;;;;;;52.70;48.00;;;;;;;18.27;100.00;102196.61;1959735;73;31033;-76
2021/08/13 23:27:14;;;;;;;50.63;46.40;;;;;;;18.23;100.00;102201.77;2013307;70;33274;-72
2021/08/13 23:32:39;;;;;;;50.63;46.27;;;;;;;18.02;100.00;102202.61;1971770;73;31117;-72
2021/08/13 23:38:05;;;;;;;51.07;46.93;;;;;;;17.90;100.00;102218.52;1971665;73;30945;-72
2021/08/13 23:43:30;;;;;;;49.77;45.37;;;;;;;17.93;100.00;102217.91;1971703;73;30965;-72
2021/08/13 23:48:54;;;;;;;50.33;45.97;;;;;;;17.80;100.00;102216.43;1971803;72;31044;-75
2021/08/13 23:54:19;;;;;;;51.83;47.33;;;;;;;17.84;100.00;102214.69;1971715;73;30989;-76
2021/08/13 23:59:43;;;;;;;48.93;44.67;;;;;;;17.64;100.00;102216.61;1971826;73;33501;-76
